sensor_id;sensor_type;location;lat;lon;timestamp;P1;durP1;ratioP1;P2;durP2;ratioP2
56319;SDS011;42226;42.382;23.748;2023-04-25T00:00:07;1.80;;;1.70;;
56319;SDS011;42226;42.382;23.748;2023-04-25T00:02:36;2.05;;;1.90;;
56319;SDS011;42226;42.382;23.748;2023-04-25T00:05:03;2.28;;;2.08;;
56319;SDS011;42226;42.382;23.748;2023-04-25T00:07:31;1.65;;;1.55;;
56319;SDS011;42226;42.382;23.748;2023-04-25T00:09:59;2.03;;;1.90;;
56319;SDS011;42226;42.382;23.748;2023-04-25T00:12:27;2.13;;;1.90;;
56319;SDS011;42226;42.382;23.748;2023-04-25T00:14:54;1.77;;;1.67;;
56319;SDS011;42226;42.382;23.748;2023-04-25T00:17:25;2.22;;;1.90;;
56319;SDS011;42226;42.382;23.748;2023-04-25T00:19:53;2.67;;;2.00;;
56319;SDS011;42226;42.382;23.748;2023-04-25T00:22:21;2.80;;;2.08;;
56319;SDS011;42226;42.382;23.748;2023-04-25T00:24:49;1.90;;;1.80;;
56319;SDS011;42226;42.382;23.748;2023-04-25T00:27:19;1.80;;;1.70;;
56319;SDS011;42226;42.382;23.748;2023-04-25T00:29:46;2.00;;;1.90;;
56319;SDS011;42226;42.382;23.748;2023-04-25T00:32:13;2.03;;;1.48;;
56319;SDS011;42226;42.382;23.748;2023-04-25T00:34:42;1.50;;;1.40;;
56319;SDS011;42226;42.382;23.748;2023-04-25T00:37:08;1.48;;;1.38;;
56319;SDS011;42226;42.382;23.748;2023-04-25T00:39:36;1.77;;;1.67;;
56319;SDS011;42226;42.382;23.748;2023-04-25T00:42:03;1.60;;;1.50;;
56319;SDS011;42226;42.382;23.748;2023-04-25T00:44:31;1.60;;;1.50;;
56319;SDS011;42226;42.382;23.748;2023-04-25T00:47:01;1.60;;;1.50;;
56319;SDS011;42226;42.382;23.748;2023-04-25T00:49:29;1.90;;;1.80;;
56319;SDS011;42226;42.382;23.748;2023-04-25T00:51:56;2.15;;;1.77;;
56319;SDS011;42226;42.382;23.748;2023-04-25T00:54:24;2.08;;;1.63;;
56319;SDS011;42226;42.382;23.748;2023-04-25T00:56:52;2.20;;;1.80;;
56319;SDS011;42226;42.382;23.748;2023-04-25T00:59:19;1.80;;;1.70;;
56319;SDS011;42226;42.382;23.748;2023-04-25T01:01:48;2.40;;;2.20;;
56319;SDS011;42226;42.382;23.748;2023-04-25T01:04:14;2.10;;;1.90;;
56319;SDS011;42226;42.382;23.748;2023-04-25T01:06:42;1.60;;;1.50;;
56319;SDS011;42226;42.382;23.748;2023-04-25T01:09:10;2.92;;;1.50;;
56319;SDS011;42226;42.382;23.748;2023-04-25T01:11:38;1.55;;;1.45;;
56319;SDS011;42226;42.382;23.748;2023-04-25T01:14:06;1.80;;;1.70;;
56319;SDS011;42226;42.382;23.748;2023-04-25T01:16:33;2.97;;;1.65;;
56319;SDS011;42226;42.382;23.748;2023-04-25T01:19:04;1.60;;;1.45;;
56319;SDS011;42226;42.382;23.748;2023-04-25T01:21:38;3.30;;;1.80;;
56319;SDS011;42226;42.382;23.748;2023-04-25T01:24:06;2.10;;;1.90;;
56319;SDS011;42226;42.382;23.748;2023-04-25T01:26:34;2.53;;;1.80;;
56319;SDS011;42226;42.382;23.748;2023-04-25T01:29:03;2.00;;;1.73;;
56319;SDS011;42226;42.382;23.748;2023-04-25T01:31:32;2.40;;;1.85;;
56319;SDS011;42226;42.382;23.748;2023-04-25T01:34:01;2.10;;;1.90;;
56319;SDS011;42226;42.382;23.748;2023-04-25T01:36:28;2.25;;;1.80;;
56319;SDS011;42226;42.382;23.748;2023-04-25T01:38:57;1.80;;;1.70;;
56319;SDS011;42226;42.382;23.748;2023-04-25T01:41:23;2.80;;;2.00;;
56319;SDS011;42226;42.382;23.748;2023-04-25T01:43:53;2.22;;;2.03;;
56319;SDS011;42226;42.382;23.748;2023-04-25T01:46:20;2.38;;;2.17;;
56319;SDS011;42226;42.382;23.748;2023-04-25T01:48:48;2.10;;;2.00;;
56319;SDS011;42226;42.382;23.748;2023-04-25T01:51:15;1.85;;;1.75;;
56319;SDS011;42226;42.382;23.748;2023-04-25T01:53:42;2.05;;;1.80;;
56319;SDS011;42226;42.382;23.748;2023-04-25T01:56:10;3.17;;;2.30;;
56319;SDS011;42226;42.382;23.748;2023-04-25T01:58:38;2.20;;;2.10;;
56319;SDS011;42226;42.382;23.748;2023-04-25T02:01:05;2.50;;;2.30;;
56319;SDS011;42226;42.382;23.748;2023-04-25T02:03:33;2.88;;;2.58;;
56319;SDS011;42226;42.382;23.748;2023-04-25T02:06:02;2.58;;;2.30;;
56319;SDS011;42226;42.382;23.748;2023-04-25T02:08:28;2.50;;;2.30;;
56319;SDS011;42226;42.382;23.748;2023-04-25T02:10:57;4.72;;;2.40;;
56319;SDS011;42226;42.382;23.748;2023-04-25T02:13:24;2.60;;;2.40;;
56319;SDS011;42226;42.382;23.748;2023-04-25T02:15:52;2.45;;;2.25;;
56319;SDS011;42226;42.382;23.748;2023-04-25T02:18:18;2.55;;;2.10;;
56319;SDS011;42226;42.382;23.748;2023-04-25T02:20:47;3.97;;;2.25;;
56319;SDS011;42226;42.382;23.748;2023-04-25T02:23:14;2.83;;;2.50;;
56319;SDS011;42226;42.382;23.748;2023-04-25T02:25:42;2.45;;;2.25;;
56319;SDS011;42226;42.382;23.748;2023-04-25T02:28:09;3.75;;;2.10;;
56319;SDS011;42226;42.382;23.748;2023-04-25T02:30:37;1.90;;;1.80;;
56319;SDS011;42226;42.382;23.748;2023-04-25T02:33:05;2.33;;;2.13;;
56319;SDS011;42226;42.382;23.748;2023-04-25T02:35:31;2.28;;;2.00;;
56319;SDS011;42226;42.382;23.748;2023-04-25T02:37:59;3.55;;;2.90;;
56319;SDS011;42226;42.382;23.748;2023-04-25T02:40:26;2.63;;;2.42;;
56319;SDS011;42226;42.382;23.748;2023-04-25T02:42:53;2.90;;;2.70;;
56319;SDS011;42226;42.382;23.748;2023-04-25T02:45:20;3.28;;;3.08;;
56319;SDS011;42226;42.382;23.748;2023-04-25T02:47:48;3.38;;;2.95;;
56319;SDS011;42226;42.382;23.748;2023-04-25T02:50:15;4.03;;;3.72;;
56319;SDS011;42226;42.382;23.748;2023-04-25T02:52:44;4.20;;;3.80;;
56319;SDS011;42226;42.382;23.748;2023-04-25T02:55:12;4.82;;;4.43;;
56319;SDS011;42226;42.382;23.748;2023-04-25T02:57:42;5.72;;;4.20;;
56319;SDS011;42226;42.382;23.748;2023-04-25T03:00:09;4.35;;;4.05;;
56319;SDS011;42226;42.382;23.748;2023-04-25T03:02:37;4.53;;;4.13;;
56319;SDS011;42226;42.382;23.748;2023-04-25T03:05:06;4.18;;;3.78;;
56319;SDS011;42226;42.382;23.748;2023-04-25T03:07:33;4.28;;;3.95;;
56319;SDS011;42226;42.382;23.748;2023-04-25T03:10:00;4.05;;;3.53;;
56319;SDS011;42226;42.382;23.748;2023-04-25T03:12:27;10.82;;;3.88;;
56319;SDS011;42226;42.382;23.748;2023-04-25T03:14:54;15.32;;;4.90;;
56319;SDS011;42226;42.382;23.748;2023-04-25T03:17:23;12.35;;;5.40;;
56319;SDS011;42226;42.382;23.748;2023-04-25T03:19:50;4.45;;;4.05;;
56319;SDS011;42226;42.382;23.748;2023-04-25T03:22:18;3.50;;;3.20;;
56319;SDS011;42226;42.382;23.748;2023-04-25T03:24:46;3.72;;;3.42;;
56319;SDS011;42226;42.382;23.748;2023-04-25T03:27:13;4.15;;;3.83;;
56319;SDS011;42226;42.382;23.748;2023-04-25T03:29:40;3.70;;;3.50;;
56319;SDS011;42226;42.382;23.748;2023-04-25T03:32:08;3.47;;;3.28;;
56319;SDS011;42226;42.382;23.748;2023-04-25T03:34:34;4.00;;;3.53;;
56319;SDS011;42226;42.382;23.748;2023-04-25T03:37:01;3.85;;;3.55;;
56319;SDS011;42226;42.382;23.748;2023-04-25T03:39:28;3.58;;;3.28;;
56319;SDS011;42226;42.382;23.748;2023-04-25T03:41:56;3.42;;;3.22;;
56319;SDS011;42226;42.382;23.748;2023-04-25T03:44:23;4.50;;;4.10;;
56319;SDS011;42226;42.382;23.748;2023-04-25T03:46:51;4.32;;;3.92;;
56319;SDS011;42226;42.382;23.748;2023-04-25T03:49:19;4.68;;;4.28;;
56319;SDS011;42226;42.382;23.748;2023-04-25T03:51:46;4.05;;;3.75;;
56319;SDS011;42226;42.382;23.748;2023-04-25T03:54:14;4.38;;;4.07;;
56319;SDS011;42226;42.382;23.748;2023-04-25T03:56:41;4.10;;;3.80;;
56319;SDS011;42226;42.382;23.748;2023-04-25T03:59:08;5.07;;;4.60;;
56319;SDS011;42226;42.382;23.748;2023-04-25T04:01:35;5.78;;;5.28;;
56319;SDS011;42226;42.382;23.748;2023-04-25T04:04:02;4.30;;;3.90;;
56319;SDS011;42226;42.382;23.748;2023-04-25T04:06:30;4.32;;;4.03;;
56319;SDS011;42226;42.382;23.748;2023-04-25T04:08:57;4.28;;;3.88;;
56319;SDS011;42226;42.382;23.748;2023-04-25T04:11:25;4.38;;;4.00;;
56319;SDS011;42226;42.382;23.748;2023-04-25T04:13:53;4.10;;;3.80;;
56319;SDS011;42226;42.382;23.748;2023-04-25T04:16:20;4.20;;;3.90;;
56319;SDS011;42226;42.382;23.748;2023-04-25T04:18:46;3.72;;;3.45;;
56319;SDS011;42226;42.382;23.748;2023-04-25T04:21:14;3.42;;;3.17;;
56319;SDS011;42226;42.382;23.748;2023-04-25T04:23:40;4.88;;;3.22;;
56319;SDS011;42226;42.382;23.748;2023-04-25T04:26:08;3.40;;;3.10;;
56319;SDS011;42226;42.382;23.748;2023-04-25T04:28:36;3.47;;;3.22;;
56319;SDS011;42226;42.382;23.748;2023-04-25T04:31:03;3.83;;;3.53;;
56319;SDS011;42226;42.382;23.748;2023-04-25T04:33:31;3.30;;;3.03;;
56319;SDS011;42226;42.382;23.748;2023-04-25T04:35:58;4.00;;;3.70;;
56319;SDS011;42226;42.382;23.748;2023-04-25T04:38:26;3.83;;;3.40;;
56319;SDS011;42226;42.382;23.748;2023-04-25T04:40:54;3.28;;;2.97;;
56319;SDS011;42226;42.382;23.748;2023-04-25T04:43:21;4.15;;;3.75;;
56319;SDS011;42226;42.382;23.748;2023-04-25T04:45:48;3.80;;;3.58;;
56319;SDS011;42226;42.382;23.748;2023-04-25T04:48:16;3.80;;;3.50;;
56319;SDS011;42226;42.382;23.748;2023-04-25T04:50:42;3.72;;;3.42;;
56319;SDS011;42226;42.382;23.748;2023-04-25T04:53:13;3.70;;;3.40;;
56319;SDS011;42226;42.382;23.748;2023-04-25T04:55:39;3.63;;;3.42;;
56319;SDS011;42226;42.382;23.748;2023-04-25T04:58:07;3.85;;;3.55;;
56319;SDS011;42226;42.382;23.748;2023-04-25T05:00:35;3.45;;;3.15;;
56319;SDS011;42226;42.382;23.748;2023-04-25T05:03:03;4.47;;;3.55;;
56319;SDS011;42226;42.382;23.748;2023-04-25T05:05:31;4.85;;;3.85;;
56319;SDS011;42226;42.382;23.748;2023-04-25T05:07:58;4.05;;;3.33;;
56319;SDS011;42226;42.382;23.748;2023-04-25T05:10:25;3.75;;;3.45;;
56319;SDS011;42226;42.382;23.748;2023-04-25T05:12:52;4.70;;;4.22;;
56319;SDS011;42226;42.382;23.748;2023-04-25T05:15:18;3.95;;;3.50;;
56319;SDS011;42226;42.382;23.748;2023-04-25T05:17:45;3.25;;;3.05;;
56319;SDS011;42226;42.382;23.748;2023-04-25T05:20:12;3.20;;;3.00;;
56319;SDS011;42226;42.382;23.748;2023-04-25T05:22:40;3.25;;;3.03;;
56319;SDS011;42226;42.382;23.748;2023-04-25T05:25:08;3.97;;;3.58;;
56319;SDS011;42226;42.382;23.748;2023-04-25T05:27:36;3.45;;;3.20;;
56319;SDS011;42226;42.382;23.748;2023-04-25T05:30:04;4.20;;;3.90;;
56319;SDS011;42226;42.382;23.748;2023-04-25T05:32:32;4.53;;;4.13;;
56319;SDS011;42226;42.382;23.748;2023-04-25T05:34:59;3.58;;;3.28;;
56319;SDS011;42226;42.382;23.748;2023-04-25T05:37:32;3.67;;;3.20;;
56319;SDS011;42226;42.382;23.748;2023-04-25T05:39:59;3.67;;;2.90;;
56319;SDS011;42226;42.382;23.748;2023-04-25T05:42:26;3.92;;;3.00;;
56319;SDS011;42226;42.382;23.748;2023-04-25T05:44:53;3.63;;;3.33;;
56319;SDS011;42226;42.382;23.748;2023-04-25T05:47:19;4.93;;;3.70;;
56319;SDS011;42226;42.382;23.748;2023-04-25T05:49:46;3.50;;;3.20;;
56319;SDS011;42226;42.382;23.748;2023-04-25T05:52:14;3.33;;;3.03;;
56319;SDS011;42226;42.382;23.748;2023-04-25T05:54:41;3.50;;;3.05;;
56319;SDS011;42226;42.382;23.748;2023-04-25T05:57:17;4.93;;;4.07;;
56319;SDS011;42226;42.382;23.748;2023-04-25T05:59:48;4.20;;;3.80;;
56319;SDS011;42226;42.382;23.748;2023-04-25T06:02:17;3.58;;;3.28;;
56319;SDS011;42226;42.382;23.748;2023-04-25T06:04:46;3.92;;;3.22;;
56319;SDS011;42226;42.382;23.748;2023-04-25T06:07:17;3.80;;;3.50;;
56319;SDS011;42226;42.382;23.748;2023-04-25T06:09:45;4.85;;;3.35;;
56319;SDS011;42226;42.382;23.748;2023-04-25T06:12:12;3.70;;;3.28;;
56319;SDS011;42226;42.382;23.748;2023-04-25T06:14:39;3.70;;;3.40;;
56319;SDS011;42226;42.382;23.748;2023-04-25T06:17:06;3.55;;;3.28;;
56319;SDS011;42226;42.382;23.748;2023-04-25T06:19:36;5.13;;;3.60;;
56319;SDS011;42226;42.382;23.748;2023-04-25T06:22:03;3.42;;;3.13;;
56319;SDS011;42226;42.382;23.748;2023-04-25T06:24:30;3.70;;;3.40;;
56319;SDS011;42226;42.382;23.748;2023-04-25T06:26:57;4.05;;;3.65;;
56319;SDS011;42226;42.382;23.748;2023-04-25T06:29:24;4.20;;;3.90;;
56319;SDS011;42226;42.382;23.748;2023-04-25T06:31:51;3.95;;;3.65;;
56319;SDS011;42226;42.382;23.748;2023-04-25T06:34:19;4.32;;;3.63;;
56319;SDS011;42226;42.382;23.748;2023-04-25T06:36:46;3.90;;;3.60;;
56319;SDS011;42226;42.382;23.748;2023-04-25T06:39:13;4.90;;;4.40;;
56319;SDS011;42226;42.382;23.748;2023-04-25T06:41:41;5.72;;;4.07;;
56319;SDS011;42226;42.382;23.748;2023-04-25T06:44:07;4.57;;;4.18;;
56319;SDS011;42226;42.382;23.748;2023-04-25T06:46:34;5.15;;;4.70;;
56319;SDS011;42226;42.382;23.748;2023-04-25T06:49:01;4.35;;;3.95;;
56319;SDS011;42226;42.382;23.748;2023-04-25T06:51:27;4.28;;;3.88;;
56319;SDS011;42226;42.382;23.748;2023-04-25T06:53:56;4.78;;;3.58;;
56319;SDS011;42226;42.382;23.748;2023-04-25T06:56:24;5.40;;;4.07;;
56319;SDS011;42226;42.382;23.748;2023-04-25T06:58:51;4.05;;;3.67;;
56319;SDS011;42226;42.382;23.748;2023-04-25T07:01:20;4.38;;;4.07;;
56319;SDS011;42226;42.382;23.748;2023-04-25T07:03:48;4.40;;;3.85;;
56319;SDS011;42226;42.382;23.748;2023-04-25T07:06:15;3.90;;;3.38;;
56319;SDS011;42226;42.382;23.748;2023-04-25T07:08:42;3.30;;;3.10;;
56319;SDS011;42226;42.382;23.748;2023-04-25T07:11:09;3.30;;;3.00;;
56319;SDS011;42226;42.382;23.748;2023-04-25T07:13:36;3.20;;;2.90;;
56319;SDS011;42226;42.382;23.748;2023-04-25T07:16:03;5.70;;;3.00;;
56319;SDS011;42226;42.382;23.748;2023-04-25T07:18:31;3.70;;;3.40;;
56319;SDS011;42226;42.382;23.748;2023-04-25T07:20:58;5.47;;;3.53;;
56319;SDS011;42226;42.382;23.748;2023-04-25T07:23:24;5.35;;;3.50;;
56319;SDS011;42226;42.382;23.748;2023-04-25T07:25:51;5.32;;;4.32;;
56319;SDS011;42226;42.382;23.748;2023-04-25T07:28:18;5.18;;;3.70;;
56319;SDS011;42226;42.382;23.748;2023-04-25T07:30:45;4.00;;;3.60;;
56319;SDS011;42226;42.382;23.748;2023-04-25T07:33:12;5.25;;;3.70;;
56319;SDS011;42226;42.382;23.748;2023-04-25T07:35:38;4.10;;;3.70;;
56319;SDS011;42226;42.382;23.748;2023-04-25T07:38:05;4.53;;;3.83;;
56319;SDS011;42226;42.382;23.748;2023-04-25T07:40:32;4.35;;;3.95;;
56319;SDS011;42226;42.382;23.748;2023-04-25T07:42:59;4.03;;;3.72;;
56319;SDS011;42226;42.382;23.748;2023-04-25T07:45:25;5.03;;;3.75;;
56319;SDS011;42226;42.382;23.748;2023-04-25T07:47:52;3.60;;;3.38;;
56319;SDS011;42226;42.382;23.748;2023-04-25T07:50:18;3.58;;;3.30;;
56319;SDS011;42226;42.382;23.748;2023-04-25T07:52:45;3.60;;;3.30;;
56319;SDS011;42226;42.382;23.748;2023-04-25T07:55:11;3.63;;;3.33;;
56319;SDS011;42226;42.382;23.748;2023-04-25T07:57:38;4.13;;;3.50;;
56319;SDS011;42226;42.382;23.748;2023-04-25T08:00:05;3.25;;;2.50;;
56319;SDS011;42226;42.382;23.748;2023-04-25T08:02:36;3.28;;;2.40;;
56319;SDS011;42226;42.382;23.748;2023-04-25T08:05:03;2.38;;;2.15;;
56319;SDS011;42226;42.382;23.748;2023-04-25T08:07:31;2.40;;;2.20;;
56319;SDS011;42226;42.382;23.748;2023-04-25T08:09:58;2.60;;;2.40;;
56319;SDS011;42226;42.382;23.748;2023-04-25T08:12:24;3.08;;;2.60;;
56319;SDS011;42226;42.382;23.748;2023-04-25T08:14:51;3.22;;;2.92;;
56319;SDS011;42226;42.382;23.748;2023-04-25T08:17:18;3.40;;;3.10;;
56319;SDS011;42226;42.382;23.748;2023-04-25T08:19:45;3.50;;;3.20;;
56319;SDS011;42226;42.382;23.748;2023-04-25T08:22:12;2.08;;;1.70;;
56319;SDS011;42226;42.382;23.748;2023-04-25T08:24:39;1.90;;;1.80;;
56319;SDS011;42226;42.382;23.748;2023-04-25T08:27:06;2.13;;;1.80;;
56319;SDS011;42226;42.382;23.748;2023-04-25T08:29:34;2.22;;;1.75;;
56319;SDS011;42226;42.382;23.748;2023-04-25T08:32:00;1.85;;;1.60;;
56319;SDS011;42226;42.382;23.748;2023-04-25T08:34:27;1.70;;;1.60;;
56319;SDS011;42226;42.382;23.748;2023-04-25T08:36:53;2.35;;;1.42;;
56319;SDS011;42226;42.382;23.748;2023-04-25T08:39:20;1.90;;;1.80;;
56319;SDS011;42226;42.382;23.748;2023-04-25T08:41:48;1.85;;;1.73;;
56319;SDS011;42226;42.382;23.748;2023-04-25T08:44:15;1.80;;;1.70;;
56319;SDS011;42226;42.382;23.748;2023-04-25T08:46:42;1.98;;;1.77;;
56319;SDS011;42226;42.382;23.748;2023-04-25T08:49:15;1.95;;;1.73;;
56319;SDS011;42226;42.382;23.748;2023-04-25T08:51:44;1.73;;;1.40;;
56319;SDS011;42226;42.382;23.748;2023-04-25T08:54:13;2.30;;;1.70;;
56319;SDS011;42226;42.382;23.748;2023-04-25T08:56:43;2.35;;;1.35;;
56319;SDS011;42226;42.382;23.748;2023-04-25T08:59:13;1.80;;;1.40;;
56319;SDS011;42226;42.382;23.748;2023-04-25T09:01:40;2.00;;;1.10;;
56319;SDS011;42226;42.382;23.748;2023-04-25T09:04:08;2.15;;;1.38;;
56319;SDS011;42226;42.382;23.748;2023-04-25T09:06:35;1.80;;;1.42;;
56319;SDS011;42226;42.382;23.748;2023-04-25T09:09:02;1.70;;;1.55;;
56319;SDS011;42226;42.382;23.748;2023-04-25T09:11:31;1.52;;;1.23;;
56319;SDS011;42226;42.382;23.748;2023-04-25T09:16:59;5.60;;;1.60;;
56319;SDS011;42226;42.382;23.748;2023-04-25T09:19:32;1.60;;;1.45;;
56319;SDS011;42226;42.382;23.748;2023-04-25T09:22:05;1.50;;;1.40;;
56319;SDS011;42226;42.382;23.748;2023-04-25T09:24:38;1.20;;;1.10;;
56319;SDS011;42226;42.382;23.748;2023-04-25T09:27:10;1.58;;;1.48;;
56319;SDS011;42226;42.382;23.748;2023-04-25T09:29:56;1.48;;;1.15;;
56319;SDS011;42226;42.382;23.748;2023-04-25T09:32:25;1.75;;;1.10;;
56319;SDS011;42226;42.382;23.748;2023-04-25T09:34:53;1.23;;;1.08;;
56319;SDS011;42226;42.382;23.748;2023-04-25T09:37:23;1.23;;;1.13;;
56319;SDS011;42226;42.382;23.748;2023-04-25T09:39:55;1.48;;;1.23;;
56319;SDS011;42226;42.382;23.748;2023-04-25T09:42:28;1.63;;;1.52;;
56319;SDS011;42226;42.382;23.748;2023-04-25T09:44:57;1.58;;;1.40;;
56319;SDS011;42226;42.382;23.748;2023-04-25T09:47:27;1.83;;;1.40;;
56319;SDS011;42226;42.382;23.748;2023-04-25T09:49:53;2.40;;;1.33;;
56319;SDS011;42226;42.382;23.748;2023-04-25T09:52:22;1.73;;;1.63;;
56319;SDS011;42226;42.382;23.748;2023-04-25T09:54:51;5.75;;;1.63;;
56319;SDS011;42226;42.382;23.748;2023-04-25T09:57:18;1.73;;;1.63;;
56319;SDS011;42226;42.382;23.748;2023-04-25T09:59:49;1.63;;;1.52;;
56319;SDS011;42226;42.382;23.748;2023-04-25T10:02:19;1.30;;;1.20;;
56319;SDS011;42226;42.382;23.748;2023-04-25T10:04:52;1.63;;;1.30;;
56319;SDS011;42226;42.382;23.748;2023-04-25T10:07:20;1.50;;;1.40;;
56319;SDS011;42226;42.382;23.748;2023-04-25T10:10:03;1.75;;;1.45;;
56319;SDS011;42226;42.382;23.748;2023-04-25T10:12:31;1.40;;;1.30;;
56319;SDS011;42226;42.382;23.748;2023-04-25T10:14:59;1.55;;;1.38;;
56319;SDS011;42226;42.382;23.748;2023-04-25T10:17:26;1.73;;;1.10;;
56319;SDS011;42226;42.382;23.748;2023-04-25T10:19:54;1.70;;;1.27;;
56319;SDS011;42226;42.382;23.748;2023-04-25T10:22:55;1.40;;;1.30;;
56319;SDS011;42226;42.382;23.748;2023-04-25T10:25:19;1.40;;;1.30;;
56319;SDS011;42226;42.382;23.748;2023-04-25T10:27:45;1.55;;;1.30;;
56319;SDS011;42226;42.382;23.748;2023-04-25T10:30:15;1.50;;;1.40;;
56319;SDS011;42226;42.382;23.748;2023-04-25T10:32:43;1.40;;;1.30;;
56319;SDS011;42226;42.382;23.748;2023-04-25T10:35:19;1.40;;;1.30;;
56319;SDS011;42226;42.382;23.748;2023-04-25T10:37:58;2.63;;;1.10;;
56319;SDS011;42226;42.382;23.748;2023-04-25T10:40:36;1.20;;;1.10;;
56319;SDS011;42226;42.382;23.748;2023-04-25T10:46:02;1.55;;;0.80;;
56319;SDS011;42226;42.382;23.748;2023-04-25T10:51:20;1.17;;;0.75;;
56319;SDS011;42226;42.382;23.748;2023-04-25T10:54:01;1.00;;;0.80;;
56319;SDS011;42226;42.382;23.748;2023-04-25T10:56:31;1.35;;;1.25;;
56319;SDS011;42226;42.382;23.748;2023-04-25T10:59:07;1.20;;;1.10;;
56319;SDS011;42226;42.382;23.748;2023-04-25T11:01:53;1.40;;;1.30;;
56319;SDS011;42226;42.382;23.748;2023-04-25T11:09:51;1.98;;;1.05;;
56319;SDS011;42226;42.382;23.748;2023-04-25T11:12:19;1.08;;;0.98;;
56319;SDS011;42226;42.382;23.748;2023-04-25T11:14:45;1.27;;;1.00;;
56319;SDS011;42226;42.382;23.748;2023-04-25T11:17:13;1.35;;;0.90;;
56319;SDS011;42226;42.382;23.748;2023-04-25T11:19:39;1.05;;;1.02;;
56319;SDS011;42226;42.382;23.748;2023-04-25T11:22:07;1.08;;;0.90;;
56319;SDS011;42226;42.382;23.748;2023-04-25T11:24:35;1.65;;;1.00;;
56319;SDS011;42226;42.382;23.748;2023-04-25T11:27:02;1.15;;;1.05;;
56319;SDS011;42226;42.382;23.748;2023-04-25T11:29:31;1.08;;;1.00;;
56319;SDS011;42226;42.382;23.748;2023-04-25T11:31:59;1.00;;;0.90;;
56319;SDS011;42226;42.382;23.748;2023-04-25T11:34:27;1.20;;;1.10;;
56319;SDS011;42226;42.382;23.748;2023-04-25T11:36:58;1.20;;;1.20;;
56319;SDS011;42226;42.382;23.748;2023-04-25T11:39:27;1.10;;;1.10;;
56319;SDS011;42226;42.382;23.748;2023-04-25T11:41:54;1.00;;;1.00;;
56319;SDS011;42226;42.382;23.748;2023-04-25T11:44:21;1.50;;;1.40;;
56319;SDS011;42226;42.382;23.748;2023-04-25T11:46:48;2.03;;;1.70;;
56319;SDS011;42226;42.382;23.748;2023-04-25T11:49:15;1.40;;;1.30;;
56319;SDS011;42226;42.382;23.748;2023-04-25T11:51:44;1.60;;;1.50;;
56319;SDS011;42226;42.382;23.748;2023-04-25T11:54:13;1.30;;;1.20;;
56319;SDS011;42226;42.382;23.748;2023-04-25T11:56:45;1.75;;;1.35;;
56319;SDS011;42226;42.382;23.748;2023-04-25T11:59:12;0.85;;;0.82;;
56319;SDS011;42226;42.382;23.748;2023-04-25T12:01:47;1.42;;;1.05;;
56319;SDS011;42226;42.382;23.748;2023-04-25T12:04:22;1.00;;;1.00;;
56319;SDS011;42226;42.382;23.748;2023-04-25T12:06:53;1.35;;;1.00;;
56319;SDS011;42226;42.382;23.748;2023-04-25T12:09:30;0.90;;;0.90;;
56319;SDS011;42226;42.382;23.748;2023-04-25T12:11:59;1.00;;;0.98;;
56319;SDS011;42226;42.382;23.748;2023-04-25T12:14:34;1.95;;;1.02;;
56319;SDS011;42226;42.382;23.748;2023-04-25T12:17:02;1.20;;;1.10;;
56319;SDS011;42226;42.382;23.748;2023-04-25T12:19:36;1.20;;;1.02;;
56319;SDS011;42226;42.382;23.748;2023-04-25T12:22:22;1.10;;;1.00;;
56319;SDS011;42226;42.382;23.748;2023-04-25T12:24:51;1.33;;;1.20;;
56319;SDS011;42226;42.382;23.748;2023-04-25T12:27:19;1.48;;;1.20;;
56319;SDS011;42226;42.382;23.748;2023-04-25T12:29:56;2.35;;;1.17;;
56319;SDS011;42226;42.382;23.748;2023-04-25T12:32:24;1.50;;;1.40;;
56319;SDS011;42226;42.382;23.748;2023-04-25T12:34:51;1.50;;;1.40;;
56319;SDS011;42226;42.382;23.748;2023-04-25T12:37:18;1.30;;;1.20;;
56319;SDS011;42226;42.382;23.748;2023-04-25T12:39:44;1.13;;;1.10;;
56319;SDS011;42226;42.382;23.748;2023-04-25T12:42:11;1.00;;;1.00;;
56319;SDS011;42226;42.382;23.748;2023-04-25T12:44:37;0.95;;;0.90;;
56319;SDS011;42226;42.382;23.748;2023-04-25T12:47:05;2.22;;;1.20;;
56319;SDS011;42226;42.382;23.748;2023-04-25T12:49:31;0.93;;;0.93;;
56319;SDS011;42226;42.382;23.748;2023-04-25T12:51:59;1.17;;;0.85;;
56319;SDS011;42226;42.382;23.748;2023-04-25T12:54:26;0.90;;;0.90;;
56319;SDS011;42226;42.382;23.748;2023-04-25T12:56:53;0.80;;;0.80;;
56319;SDS011;42226;42.382;23.748;2023-04-25T12:59:20;1.00;;;0.90;;
56319;SDS011;42226;42.382;23.748;2023-04-25T13:01:47;1.42;;;0.90;;
56319;SDS011;42226;42.382;23.748;2023-04-25T13:04:13;1.40;;;0.90;;
56319;SDS011;42226;42.382;23.748;2023-04-25T13:06:40;0.80;;;0.80;;
56319;SDS011;42226;42.382;23.748;2023-04-25T13:09:07;0.88;;;0.70;;
56319;SDS011;42226;42.382;23.748;2023-04-25T13:11:33;1.10;;;0.93;;
56319;SDS011;42226;42.382;23.748;2023-04-25T13:14:00;1.10;;;1.00;;
56319;SDS011;42226;42.382;23.748;2023-04-25T13:16:27;1.10;;;1.10;;
56319;SDS011;42226;42.382;23.748;2023-04-25T13:18:53;2.15;;;1.10;;
56319;SDS011;42226;42.382;23.748;2023-04-25T13:21:21;1.40;;;1.10;;
56319;SDS011;42226;42.382;23.748;2023-04-25T13:23:47;1.35;;;1.20;;
56319;SDS011;42226;42.382;23.748;2023-04-25T13:26:14;1.33;;;1.23;;
56319;SDS011;42226;42.382;23.748;2023-04-25T13:28:41;1.40;;;1.30;;
56319;SDS011;42226;42.382;23.748;2023-04-25T13:31:07;1.30;;;1.20;;
56319;SDS011;42226;42.382;23.748;2023-04-25T13:33:34;1.30;;;1.20;;
56319;SDS011;42226;42.382;23.748;2023-04-25T13:36:01;2.10;;;1.10;;
56319;SDS011;42226;42.382;23.748;2023-04-25T13:38:27;1.25;;;1.15;;
56319;SDS011;42226;42.382;23.748;2023-04-25T13:40:54;1.33;;;1.23;;
56319;SDS011;42226;42.382;23.748;2023-04-25T13:43:21;2.08;;;1.10;;
56319;SDS011;42226;42.382;23.748;2023-04-25T13:45:51;1.25;;;1.05;;
56319;SDS011;42226;42.382;23.748;2023-04-25T13:48:18;1.30;;;1.20;;
56319;SDS011;42226;42.382;23.748;2023-04-25T13:50:45;1.23;;;1.13;;
56319;SDS011;42226;42.382;23.748;2023-04-25T13:53:13;1.13;;;1.02;;
56319;SDS011;42226;42.382;23.748;2023-04-25T13:55:40;1.42;;;1.20;;
56319;SDS011;42226;42.382;23.748;2023-04-25T13:58:08;1.30;;;1.20;;
56319;SDS011;42226;42.382;23.748;2023-04-25T14:00:35;1.10;;;1.00;;
56319;SDS011;42226;42.382;23.748;2023-04-25T14:03:05;1.20;;;1.10;;
56319;SDS011;42226;42.382;23.748;2023-04-25T14:05:35;1.38;;;1.27;;
56319;SDS011;42226;42.382;23.748;2023-04-25T14:08:09;1.98;;;1.42;;
56319;SDS011;42226;42.382;23.748;2023-04-25T14:10:36;1.38;;;1.27;;
56319;SDS011;42226;42.382;23.748;2023-04-25T14:13:03;1.60;;;1.50;;
56319;SDS011;42226;42.382;23.748;2023-04-25T14:15:34;1.50;;;1.40;;
56319;SDS011;42226;42.382;23.748;2023-04-25T14:18:01;1.83;;;1.30;;
56319;SDS011;42226;42.382;23.748;2023-04-25T14:20:28;1.40;;;1.30;;
56319;SDS011;42226;42.382;23.748;2023-04-25T14:22:54;1.45;;;1.35;;
56319;SDS011;42226;42.382;23.748;2023-04-25T14:25:23;1.25;;;1.15;;
56319;SDS011;42226;42.382;23.748;2023-04-25T14:27:50;1.73;;;1.40;;
56319;SDS011;42226;42.382;23.748;2023-04-25T14:30:17;3.30;;;1.40;;
56319;SDS011;42226;42.382;23.748;2023-04-25T14:32:45;1.60;;;1.10;;
56319;SDS011;42226;42.382;23.748;2023-04-25T14:35:13;1.30;;;1.20;;
56319;SDS011;42226;42.382;23.748;2023-04-25T14:37:40;1.40;;;1.30;;
56319;SDS011;42226;42.382;23.748;2023-04-25T14:40:06;1.33;;;1.10;;
56319;SDS011;42226;42.382;23.748;2023-04-25T14:42:36;1.13;;;1.00;;
56319;SDS011;42226;42.382;23.748;2023-04-25T14:45:06;1.80;;;1.13;;
56319;SDS011;42226;42.382;23.748;2023-04-25T14:47:35;1.40;;;1.27;;
56319;SDS011;42226;42.382;23.748;2023-04-25T14:50:02;2.00;;;1.33;;
56319;SDS011;42226;42.382;23.748;2023-04-25T14:52:30;1.50;;;1.40;;